sensor_id;sensor_type;location;lat;lon;timestamp;pressure;altitude;pressure_sealevel;temperature;humidity
77171;BME280;66144;50.020;14.422;2023-09-19T00:00:42;98303.44;;;19.18;77.02
77171;BME280;66144;50.020;14.422;2023-09-19T00:03:08;98304.97;;;19.10;77.18
77171;BME280;66144;50.020;14.422;2023-09-19T00:05:35;98302.19;;;19.07;77.44
77171;BME280;66144;50.020;14.422;2023-09-19T00:08:01;98300.31;;;19.07;76.72
77171;BME280;66144;50.020;14.422;2023-09-19T00:10:32;98307.34;;;19.03;76.59
77171;BME280;66144;50.020;14.422;2023-09-19T00:13:01;98303.44;;;19.01;76.75
77171;BME280;66144;50.020;14.422;2023-09-19T00:15:39;98307.03;;;18.96;77.17
77171;BME280;66144;50.020;14.422;2023-09-19T00:18:08;98313.88;;;18.97;76.87
77171;BME280;66144;50.020;14.422;2023-09-19T00:20:37;98315.59;;;18.93;77.34
77171;BME280;66144;50.020;14.422;2023-09-19T00:23:04;98319.63;;;18.90;77.46
77171;BME280;66144;50.020;14.422;2023-09-19T00:25:34;98317.91;;;18.77;77.61
77171;BME280;66144;50.020;14.422;2023-09-19T00:28:01;98319.00;;;18.76;77.53
77171;BME280;66144;50.020;14.422;2023-09-19T00:30:26;98312.94;;;18.76;78.10
77171;BME280;66144;50.020;14.422;2023-09-19T00:32:52;98330.03;;;18.70;78.54
77171;BME280;66144;50.020;14.422;2023-09-19T00:35:18;98330.81;;;18.70;78.48
77171;BME280;66144;50.020;14.422;2023-09-19T00:37:50;98331.59;;;18.71;78.86
77171;BME280;66144;50.020;14.422;2023-09-19T00:40:16;98330.03;;;18.70;79.28
77171;BME280;66144;50.020;14.422;2023-09-19T00:42:45;98327.69;;;18.68;79.01
77171;BME280;66144;50.020;14.422;2023-09-19T00:45:12;98333.47;;;18.70;78.54
77171;BME280;66144;50.020;14.422;2023-09-19T00:47:44;98342.19;;;18.71;78.86
77171;BME280;66144;50.020;14.422;2023-09-19T00:50:12;98331.75;;;18.74;78.16
77171;BME280;66144;50.020;14.422;2023-09-19T00:52:40;98330.19;;;18.73;78.23
77171;BME280;66144;50.020;14.422;2023-09-19T00:55:08;98334.84;;;18.68;78.29
77171;BME280;66144;50.020;14.422;2023-09-19T00:57:35;98332.06;;;18.73;77.38
77171;BME280;66144;50.020;14.422;2023-09-19T01:00:02;98337.84;;;18.75;77.79
77171;BME280;66144;50.020;14.422;2023-09-19T01:02:34;98327.88;;;18.72;77.70
77171;BME280;66144;50.020;14.422;2023-09-19T01:05:00;98321.97;;;18.66;77.42
77171;BME280;66144;50.020;14.422;2023-09-19T01:07:30;98330.50;;;18.72;77.21
77171;BME280;66144;50.020;14.422;2023-09-19T01:09:59;98324.75;;;18.70;77.31
77171;BME280;66144;50.020;14.422;2023-09-19T01:12:41;98325.34;;;18.67;77.53
77171;BME280;66144;50.020;14.422;2023-09-19T01:21:26;98336.53;;;18.55;78.02
77171;BME280;66144;50.020;14.422;2023-09-19T01:27:11;98338.38;;;18.46;77.48
77171;BME280;66144;50.020;14.422;2023-09-19T01:29:45;98336.81;;;18.45;77.86
77171;BME280;66144;50.020;14.422;2023-09-19T01:32:13;98337.31;;;18.47;77.48
77171;BME280;66144;50.020;14.422;2023-09-19T01:34:56;98325.44;;;18.36;78.24
77171;BME280;66144;50.020;14.422;2023-09-19T01:37:29;98332.88;;;18.34;78.52
77171;BME280;66144;50.020;14.422;2023-09-19T01:40:06;98335.72;;;18.37;78.14
77171;BME280;66144;50.020;14.422;2023-09-19T01:48:41;98335.38;;;18.30;78.07
77171;BME280;66144;50.020;14.422;2023-09-19T01:51:14;98331.63;;;18.31;77.77
77171;BME280;66144;50.020;14.422;2023-09-19T01:59:14;98343.59;;;18.28;77.19
77171;BME280;66144;50.020;14.422;2023-09-19T02:01:42;98329.59;;;18.28;77.04
77171;BME280;66144;50.020;14.422;2023-09-19T02:04:10;98340.81;;;18.25;77.59
77171;BME280;66144;50.020;14.422;2023-09-19T02:06:40;98328.69;;;18.24;76.80
77171;BME280;66144;50.020;14.422;2023-09-19T02:09:06;98340.16;;;18.19;77.12
77171;BME280;66144;50.020;14.422;2023-09-19T02:11:32;98337.22;;;18.21;77.25
77171;BME280;66144;50.020;14.422;2023-09-19T02:13:57;98329.75;;;18.23;76.63
77171;BME280;66144;50.020;14.422;2023-09-19T02:16:23;98333.34;;;18.27;76.89
77171;BME280;66144;50.020;14.422;2023-09-19T02:18:49;98335.66;;;18.28;76.74
77171;BME280;66144;50.020;14.422;2023-09-19T02:21:15;98332.72;;;18.30;76.58
77171;BME280;66144;50.020;14.422;2023-09-19T02:23:42;98329.47;;;18.33;76.84
77171;BME280;66144;50.020;14.422;2023-09-19T02:26:09;98325.75;;;18.34;76.83
77171;BME280;66144;50.020;14.422;2023-09-19T02:28:34;98330.72;;;18.36;76.72
77171;BME280;66144;50.020;14.422;2023-09-19T02:31:01;98321.53;;;18.33;75.88
77171;BME280;66144;50.020;14.422;2023-09-19T02:33:26;98324.03;;;18.38;75.80
77171;BME280;66144;50.020;14.422;2023-09-19T02:35:56;98322.00;;;18.35;76.98
77171;BME280;66144;50.020;14.422;2023-09-19T02:38:23;98318.28;;;18.36;75.95
77171;BME280;66144;50.020;14.422;2023-09-19T02:40:50;98330.41;;;18.37;76.39
77171;BME280;66144;50.020;14.422;2023-09-19T02:43:16;98336.66;;;18.41;76.23
77171;BME280;66144;50.020;14.422;2023-09-19T02:45:42;98327.16;;;18.40;76.15
77171;BME280;66144;50.020;14.422;2023-09-19T02:48:08;98329.66;;;18.45;75.43
77171;BME280;66144;50.020;14.422;2023-09-19T02:50:33;98326.56;;;18.43;76.74
77171;BME280;66144;50.020;14.422;2023-09-19T02:52:59;98333.41;;;18.44;76.36
77171;BME280;66144;50.020;14.422;2023-09-19T02:55:24;98335.75;;;18.46;76.63
77171;BME280;66144;50.020;14.422;2023-09-19T02:57:53;98324.38;;;18.45;76.52
77171;BME280;66144;50.020;14.422;2023-09-19T03:00:20;98326.22;;;18.36;75.49
77171;BME280;66144;50.020;14.422;2023-09-19T03:02:47;98319.09;;;18.45;75.41
77171;BME280;66144;50.020;14.422;2023-09-19T03:05:12;98315.19;;;18.43;75.67
77171;BME280;66144;50.020;14.422;2023-09-19T03:07:38;98317.38;;;18.49;75.13
77171;BME280;66144;50.020;14.422;2023-09-19T03:10:05;98309.91;;;18.51;74.71
77171;BME280;66144;50.020;14.422;2023-09-19T03:12:31;98308.66;;;18.49;74.67
77171;BME280;66144;50.020;14.422;2023-09-19T03:14:57;98309.13;;;18.51;74.22
77171;BME280;66144;50.020;14.422;2023-09-19T03:17:22;98310.50;;;18.48;74.51
77171;BME280;66144;50.020;14.422;2023-09-19T03:19:47;98313.31;;;18.52;74.31
77171;BME280;66144;50.020;14.422;2023-09-19T03:22:14;98314.09;;;18.52;74.36
77171;BME280;66144;50.020;14.422;2023-09-19T03:24:40;98305.09;;;18.53;74.02
77171;BME280;66144;50.020;14.422;2023-09-19T03:27:05;98312.41;;;18.56;74.19
77171;BME280;66144;50.020;14.422;2023-09-19T03:29:30;98313.50;;;18.55;74.82
77171;BME280;66144;50.020;14.422;2023-09-19T03:31:56;98301.81;;;18.56;74.28
77171;BME280;66144;50.020;14.422;2023-09-19T03:34:21;98316.91;;;18.56;74.83
77171;BME280;66144;50.020;14.422;2023-09-19T03:36:47;98310.53;;;18.57;73.87
77171;BME280;66144;50.020;14.422;2023-09-19T03:39:12;98309.75;;;18.56;74.82
77171;BME280;66144;50.020;14.422;2023-09-19T03:41:40;98311.06;;;18.59;74.07
77171;BME280;66144;50.020;14.422;2023-09-19T03:44:05;98305.44;;;18.60;73.81
77171;BME280;66144;50.020;14.422;2023-09-19T03:46:31;98306.53;;;18.59;74.54
77171;BME280;66144;50.020;14.422;2023-09-19T03:48:57;98304.53;;;18.65;73.71
77171;BME280;66144;50.020;14.422;2023-09-19T03:51:22;98304.06;;;18.63;74.08
77171;BME280;66144;50.020;14.422;2023-09-19T03:53:48;98301.41;;;18.63;73.93
77171;BME280;66144;50.020;14.422;2023-09-19T03:56:15;98305.91;;;18.62;74.49
77171;BME280;66144;50.020;14.422;2023-09-19T03:58:40;98308.56;;;18.62;74.52
77171;BME280;66144;50.020;14.422;2023-09-19T04:01:06;98311.69;;;18.65;74.27
77171;BME280;66144;50.020;14.422;2023-09-19T04:03:33;98321.00;;;18.62;74.32
77171;BME280;66144;50.020;14.422;2023-09-19T04:06:15;98320.25;;;18.61;73.59
77171;BME280;66144;50.020;14.422;2023-09-19T04:08:41;98318.69;;;18.60;73.79
77171;BME280;66144;50.020;14.422;2023-09-19T04:11:07;98321.31;;;18.60;75.07
77171;BME280;66144;50.020;14.422;2023-09-19T04:13:32;98332.38;;;18.62;74.79
77171;BME280;66144;50.020;14.422;2023-09-19T04:15:58;98330.19;;;18.65;74.46
77171;BME280;66144;50.020;14.422;2023-09-19T04:18:23;98339.94;;;18.55;74.07
77171;BME280;66144;50.020;14.422;2023-09-19T04:20:52;98342.78;;;18.59;74.13
77171;BME280;66144;50.020;14.422;2023-09-19T04:23:18;98342.13;;;18.53;74.53
77171;BME280;66144;50.020;14.422;2023-09-19T04:25:46;98343.03;;;18.49;74.82
77171;BME280;66144;50.020;14.422;2023-09-19T04:28:11;98343.97;;;18.53;75.02
77171;BME280;66144;50.020;14.422;2023-09-19T04:30:38;98350.06;;;18.53;74.54
77171;BME280;66144;50.020;14.422;2023-09-19T04:33:07;98349.75;;;18.55;74.61
77171;BME280;66144;50.020;14.422;2023-09-19T04:35:32;98367.78;;;18.53;74.71
77171;BME280;66144;50.020;14.422;2023-09-19T04:37:58;98369.34;;;18.45;75.26
77171;BME280;66144;50.020;14.422;2023-09-19T04:40:23;98372.91;;;18.49;75.00
77171;BME280;66144;50.020;14.422;2023-09-19T04:42:56;98366.84;;;18.49;75.53
77171;BME280;66144;50.020;14.422;2023-09-19T04:45:25;98375.84;;;18.48;75.65
77171;BME280;66144;50.020;14.422;2023-09-19T04:47:52;98371.22;;;18.53;74.71
77171;BME280;66144;50.020;14.422;2023-09-19T04:50:18;98379.94;;;18.54;75.53
77171;BME280;66144;50.020;14.422;2023-09-19T04:52:49;98385.06;;;18.50;75.85
77171;BME280;66144;50.020;14.422;2023-09-19T04:55:16;98393.94;;;18.54;75.49
77171;BME280;66144;50.020;14.422;2023-09-19T04:57:50;98389.44;;;18.55;75.29
77171;BME280;66144;50.020;14.422;2023-09-19T05:00:17;98382.88;;;18.52;75.20
77171;BME280;66144;50.020;14.422;2023-09-19T05:02:50;98405.78;;;18.57;74.48
77171;BME280;66144;50.020;14.422;2023-09-19T05:05:16;98410.19;;;18.61;74.57
77171;BME280;66144;50.020;14.422;2023-09-19T05:07:42;98411.25;;;18.60;74.26
77171;BME280;66144;50.020;14.422;2023-09-19T05:10:09;98419.69;;;18.62;74.41
77171;BME280;66144;50.020;14.422;2023-09-19T05:12:35;98412.34;;;18.59;74.74
77171;BME280;66144;50.020;14.422;2023-09-19T05:15:05;98418.28;;;18.65;74.68
77171;BME280;66144;50.020;14.422;2023-09-19T05:17:33;98417.50;;;18.65;75.19
77171;BME280;66144;50.020;14.422;2023-09-19T05:19:59;98421.72;;;18.66;74.58
77171;BME280;66144;50.020;14.422;2023-09-19T05:22:28;98414.38;;;18.62;74.25
77171;BME280;66144;50.020;14.422;2023-09-19T05:24:54;98421.84;;;18.60;74.86
77171;BME280;66144;50.020;14.422;2023-09-19T05:27:19;98423.09;;;18.63;74.80
77171;BME280;66144;50.020;14.422;2023-09-19T05:29:46;98427.63;;;18.62;73.81
77171;BME280;66144;50.020;14.422;2023-09-19T05:32:16;98425.13;;;18.66;74.67
77171;BME280;66144;50.020;14.422;2023-09-19T05:34:41;98430.56;;;18.70;74.45
77171;BME280;66144;50.020;14.422;2023-09-19T05:37:06;98430.28;;;18.71;74.88
77171;BME280;66144;50.020;14.422;2023-09-19T05:39:32;98439.75;;;18.72;73.93
77171;BME280;66144;50.020;14.422;2023-09-19T05:41:58;98431.53;;;18.74;73.94
77171;BME280;66144;50.020;14.422;2023-09-19T05:44:25;98439.16;;;18.75;74.35
77171;BME280;66144;50.020;14.422;2023-09-19T05:46:50;98431.22;;;18.75;74.75
77171;BME280;66144;50.020;14.422;2023-09-19T05:49:17;98438.56;;;18.78;74.74
77171;BME280;66144;50.020;14.422;2023-09-19T05:51:42;98436.56;;;18.84;74.09
77171;BME280;66144;50.020;14.422;2023-09-19T05:54:08;98442.94;;;18.83;73.75
77171;BME280;66144;50.020;14.422;2023-09-19T05:56:33;98439.63;;;18.86;73.18
77171;BME280;66144;50.020;14.422;2023-09-19T05:58:58;98442.16;;;18.91;73.34
77171;BME280;66144;50.020;14.422;2023-09-19T06:01:24;98449.94;;;18.96;73.15
77171;BME280;66144;50.020;14.422;2023-09-19T06:03:50;98446.69;;;18.99;73.63
77171;BME280;66144;50.020;14.422;2023-09-19T06:06:16;98454.16;;;18.97;72.44
77171;BME280;66144;50.020;14.422;2023-09-19T06:08:41;98459.78;;;19.04;73.88
77171;BME280;66144;50.020;14.422;2023-09-19T06:11:10;98454.34;;;19.01;73.93
77171;BME280;66144;50.020;14.422;2023-09-19T06:13:36;98467.09;;;19.07;73.75
77171;BME280;66144;50.020;14.422;2023-09-19T06:16:02;98463.53;;;19.12;72.93
77171;BME280;66144;50.020;14.422;2023-09-19T06:18:31;98472.38;;;19.07;73.45
77171;BME280;66144;50.020;14.422;2023-09-19T06:20:59;98485.19;;;19.14;72.31
77171;BME280;66144;50.020;14.422;2023-09-19T06:23:25;98483.78;;;19.16;72.42
77171;BME280;66144;50.020;14.422;2023-09-19T06:25:52;98490.47;;;19.14;72.48
77171;BME280;66144;50.020;14.422;2023-09-19T06:28:18;98486.44;;;19.16;72.96
77171;BME280;66144;50.020;14.422;2023-09-19T06:30:49;98490.50;;;19.22;72.70
77171;BME280;66144;50.020;14.422;2023-09-19T06:33:14;98498.28;;;19.27;72.02
77171;BME280;66144;50.020;14.422;2023-09-19T06:35:41;98506.09;;;19.32;71.87
77171;BME280;66144;50.020;14.422;2023-09-19T06:38:07;98505.16;;;19.37;72.24
77171;BME280;66144;50.020;14.422;2023-09-19T06:40:34;98512.34;;;19.37;71.25
77171;BME280;66144;50.020;14.422;2023-09-19T06:43:00;98518.59;;;19.41;71.11
77171;BME280;66144;50.020;14.422;2023-09-19T06:45:27;98526.72;;;19.53;71.41
77171;BME280;66144;50.020;14.422;2023-09-19T06:47:52;98520.63;;;19.52;70.60
77171;BME280;66144;50.020;14.422;2023-09-19T06:50:22;98523.94;;;19.58;71.70
77171;BME280;66144;50.020;14.422;2023-09-19T06:52:52;98523.44;;;19.64;70.64
77171;BME280;66144;50.020;14.422;2023-09-19T06:55:20;98527.19;;;19.63;70.36
77171;BME280;66144;50.020;14.422;2023-09-19T06:57:48;98525.16;;;19.69;70.08
77171;BME280;66144;50.020;14.422;2023-09-19T07:00:15;98528.16;;;19.76;69.55
77171;BME280;66144;50.020;14.422;2023-09-19T07:02:44;98538.88;;;19.88;69.68
77171;BME280;66144;50.020;14.422;2023-09-19T07:05:10;98542.63;;;19.87;69.77
77171;BME280;66144;50.020;14.422;2023-09-19T07:07:35;98534.38;;;19.97;69.94
77171;BME280;66144;50.020;14.422;2023-09-19T07:10:03;98550.88;;;20.03;69.93
77171;BME280;66144;50.020;14.422;2023-09-19T07:12:31;98547.78;;;20.01;69.83
77171;BME280;66144;50.020;14.422;2023-09-19T07:14:56;98553.84;;;20.01;69.85
77171;BME280;66144;50.020;14.422;2023-09-19T07:17:22;98555.09;;;20.13;69.30
77171;BME280;66144;50.020;14.422;2023-09-19T07:19:49;98552.78;;;19.94;68.66
77171;BME280;66144;50.020;14.422;2023-09-19T07:22:15;98556.50;;;20.01;69.73
77171;BME280;66144;50.020;14.422;2023-09-19T07:24:41;98554.00;;;20.05;69.08
77171;BME280;66144;50.020;14.422;2023-09-19T07:27:06;98559.16;;;20.10;68.26
77171;BME280;66144;50.020;14.422;2023-09-19T07:29:31;98552.00;;;20.11;68.25
77171;BME280;66144;50.020;14.422;2023-09-19T07:31:57;98549.94;;;20.25;68.17
77171;BME280;66144;50.020;14.422;2023-09-19T07:34:22;98560.53;;;20.25;67.63
77171;BME280;66144;50.020;14.422;2023-09-19T07:36:49;98560.38;;;20.30;67.49
77171;BME280;66144;50.020;14.422;2023-09-19T07:39:15;98562.28;;;20.38;67.55
77171;BME280;66144;50.020;14.422;2023-09-19T07:41:40;98571.94;;;20.51;68.29
77171;BME280;66144;50.020;14.422;2023-09-19T07:44:07;98571.47;;;20.49;67.69
77171;BME280;66144;50.020;14.422;2023-09-19T07:46:32;98579.91;;;20.43;68.29
77171;BME280;66144;50.020;14.422;2023-09-19T07:48:58;98570.84;;;20.44;67.55
77171;BME280;66144;50.020;14.422;2023-09-19T07:51:24;98573.50;;;20.52;67.38
77171;BME280;66144;50.020;14.422;2023-09-19T07:53:49;98580.69;;;20.52;67.81
77171;BME280;66144;50.020;14.422;2023-09-19T07:56:14;98572.56;;;20.57;67.04
77171;BME280;66144;50.020;14.422;2023-09-19T07:58:41;98567.84;;;20.62;67.78
77171;BME280;66144;50.020;14.422;2023-09-19T08:01:10;98573.28;;;20.66;67.22
77171;BME280;66144;50.020;14.422;2023-09-19T08:03:36;98571.38;;;20.84;66.15
77171;BME280;66144;50.020;14.422;2023-09-19T08:06:08;98576.19;;;20.90;65.12
77171;BME280;66144;50.020;14.422;2023-09-19T08:08:34;98573.78;;;21.06;64.80
77171;BME280;66144;50.020;14.422;2023-09-19T08:11:04;98564.19;;;21.22;65.58
77171;BME280;66144;50.020;14.422;2023-09-19T08:13:37;98573.09;;;21.26;63.83
77171;BME280;66144;50.020;14.422;2023-09-19T08:16:08;98569.88;;;21.42;63.49
77171;BME280;66144;50.020;14.422;2023-09-19T08:18:34;98574.84;;;21.52;63.20
77171;BME280;66144;50.020;14.422;2023-09-19T08:20:59;98570.97;;;21.70;62.08
77171;BME280;66144;50.020;14.422;2023-09-19T08:23:26;98579.97;;;21.78;62.92
77171;BME280;66144;50.020;14.422;2023-09-19T08:25:56;98590.06;;;21.63;61.51
77171;BME280;66144;50.020;14.422;2023-09-19T08:28:21;98584.16;;;21.58;62.17
77171;BME280;66144;50.020;14.422;2023-09-19T08:30:50;98588.38;;;21.59;62.66
77171;BME280;66144;50.020;14.422;2023-09-19T08:33:16;98588.94;;;21.44;61.75
77171;BME280;66144;50.020;14.422;2023-09-19T08:35:42;98596.09;;;21.52;62.06
77171;BME280;66144;50.020;14.422;2023-09-19T08:38:08;98591.13;;;21.42;62.92
77171;BME280;66144;50.020;14.422;2023-09-19T08:40:38;98591.97;;;21.33;62.59
77171;BME280;66144;50.020;14.422;2023-09-19T08:43:05;98595.34;;;21.43;62.82
77171;BME280;66144;50.020;14.422;2023-09-19T08:45:32;98590.66;;;21.40;62.42
77171;BME280;66144;50.020;14.422;2023-09-19T08:48:17;98601.59;;;21.47;62.65
77171;BME280;66144;50.020;14.422;2023-09-19T08:51:03;98603.94;;;21.48;61.84
77171;BME280;66144;50.020;14.422;2023-09-19T08:56:12;98612.41;;;21.71;62.17
77171;BME280;66144;50.020;14.422;2023-09-19T08:58:46;98601.56;;;21.76;60.28
77171;BME280;66144;50.020;14.422;2023-09-19T09:01:17;98609.09;;;21.95;61.34
77171;BME280;66144;50.020;14.422;2023-09-19T09:03:53;98601.84;;;22.04;60.06
77171;BME280;66144;50.020;14.422;2023-09-19T09:06:20;98600.66;;;22.14;60.39
77171;BME280;66144;50.020;14.422;2023-09-19T09:08:46;98612.81;;;22.23;60.09
77171;BME280;66144;50.020;14.422;2023-09-19T09:11:13;98607.47;;;22.44;60.35
77171;BME280;66144;50.020;14.422;2023-09-19T09:13:38;98609.81;;;22.58;59.94
77171;BME280;66144;50.020;14.422;2023-09-19T09:16:07;98614.53;;;22.73;58.63
77171;BME280;66144;50.020;14.422;2023-09-19T09:18:33;98613.63;;;22.90;59.18
77171;BME280;66144;50.020;14.422;2023-09-19T09:20:59;98612.06;;;22.89;57.17
77171;BME280;66144;50.020;14.422;2023-09-19T09:23:26;98612.47;;;22.79;56.87
77171;BME280;66144;50.020;14.422;2023-09-19T09:25:55;98616.03;;;22.83;57.07
77171;BME280;66144;50.020;14.422;2023-09-19T09:28:44;98606.16;;;22.95;56.95
77171;BME280;66144;50.020;14.422;2023-09-19T09:31:24;98621.34;;;22.83;55.93
77171;BME280;66144;50.020;14.422;2023-09-19T09:33:54;98607.72;;;22.96;55.04
77171;BME280;66144;50.020;14.422;2023-09-19T09:36:34;98610.19;;;23.38;54.67
77171;BME280;66144;50.020;14.422;2023-09-19T09:39:00;98616.06;;;23.68;54.04
77171;BME280;66144;50.020;14.422;2023-09-19T09:41:40;98612.97;;;23.66;53.80
77171;BME280;66144;50.020;14.422;2023-09-19T09:44:13;98620.75;;;23.71;54.55
77171;BME280;66144;50.020;14.422;2023-09-19T09:46:43;98607.06;;;23.72;53.29
77171;BME280;66144;50.020;14.422;2023-09-19T09:49:24;98606.72;;;23.74;54.20
77171;BME280;66144;50.020;14.422;2023-09-19T09:52:03;98598.81;;;23.90;53.76
77171;BME280;66144;50.020;14.422;2023-09-19T09:55:01;98590.22;;;23.96;53.60
77171;BME280;66144;50.020;14.422;2023-09-19T09:57:34;98601.41;;;24.14;54.17
77171;BME280;66144;50.020;14.422;2023-09-19T10:00:00;98588.47;;;24.28;52.14
77171;BME280;66144;50.020;14.422;2023-09-19T10:02:38;98595.06;;;24.19;52.13
77171;BME280;66144;50.020;14.422;2023-09-19T10:05:14;98606.53;;;24.07;51.67
77171;BME280;66144;50.020;14.422;2023-09-19T10:07:47;98602.94;;;24.27;51.79
77171;BME280;66144;50.020;14.422;2023-09-19T10:10:29;98593.47;;;24.30;51.29
77171;BME280;66144;50.020;14.422;2023-09-19T10:13:05;98609.44;;;24.42;52.58
77171;BME280;66144;50.020;14.422;2023-09-19T10:15:33;98607.47;;;24.39;51.10
77171;BME280;66144;50.020;14.422;2023-09-19T10:18:04;98606.34;;;24.40;51.20
77171;BME280;66144;50.020;14.422;2023-09-19T10:20:32;98618.88;;;24.67;51.08
77171;BME280;66144;50.020;14.422;2023-09-19T10:22:57;98616.28;;;24.55;51.24
77171;BME280;66144;50.020;14.422;2023-09-19T10:25:26;98624.19;;;24.52;49.80
77171;BME280;66144;50.020;14.422;2023-09-19T10:27:54;98619.75;;;24.71;49.98
77171;BME280;66144;50.020;14.422;2023-09-19T10:30:22;98624.09;;;24.92;48.74
77171;BME280;66144;50.020;14.422;2023-09-19T10:32:56;98630.31;;;24.96;48.88
77171;BME280;66144;50.020;14.422;2023-09-19T10:35:23;98633.63;;;24.77;48.57
77171;BME280;66144;50.020;14.422;2023-09-19T10:37:50;98635.28;;;24.82;49.17
77171;BME280;66144;50.020;14.422;2023-09-19T10:40:18;98624.66;;;24.85;48.27
77171;BME280;66144;50.020;14.422;2023-09-19T10:42:45;98622.91;;;25.21;47.60
77171;BME280;66144;50.020;14.422;2023-09-19T10:45:13;98625.13;;;25.50;47.06
77171;BME280;66144;50.020;14.422;2023-09-19T10:47:40;98622.84;;;26.03;46.37
77171;BME280;66144;50.020;14.422;2023-09-19T10:50:06;98628.44;;;26.33;44.50
77171;BME280;66144;50.020;14.422;2023-09-19T10:52:40;98615.16;;;26.82;42.74
77171;BME280;66144;50.020;14.422;2023-09-19T10:55:08;98612.59;;;27.08;42.72
77171;BME280;66144;50.020;14.422;2023-09-19T10:57:36;98614.06;;;27.81;42.48
77171;BME280;66144;50.020;14.422;2023-09-19T11:00:06;98615.09;;;28.03;41.98
77171;BME280;66144;50.020;14.422;2023-09-19T11:05:42;98615.44;;;27.72;42.70
77171;BME280;66144;50.020;14.422;2023-09-19T11:08:08;98614.19;;;27.13;42.28
77171;BME280;66144;50.020;14.422;2023-09-19T11:10:50;98619.00;;;27.53;41.91
77171;BME280;66144;50.020;14.422;2023-09-19T11:26:50;98602.34;;;26.49;43.52
77171;BME280;66144;50.020;14.422;2023-09-19T11:29:30;98595.63;;;26.59;43.02
77171;BME280;66144;50.020;14.422;2023-09-19T11:31:57;98607.16;;;27.05;41.70
77171;BME280;66144;50.020;14.422;2023-09-19T11:39:39;98599.75;;;28.34;37.95
77171;BME280;66144;50.020;14.422;2023-09-19T11:48:15;98605.19;;;27.77;36.89
77171;BME280;66144;50.020;14.422;2023-09-19T11:50:44;98597.84;;;28.04;36.76
77171;BME280;66144;50.020;14.422;2023-09-19T11:53:11;98593.94;;;28.28;35.73
77171;BME280;66144;50.020;14.422;2023-09-19T11:55:38;98588.59;;;28.72;35.18
77171;BME280;66144;50.020;14.422;2023-09-19T11:58:06;98587.25;;;28.93;35.18
77171;BME280;66144;50.020;14.422;2023-09-19T12:00:33;98595.47;;;29.10;34.36
77171;BME280;66144;50.020;14.422;2023-09-19T12:03:08;98601.19;;;29.02;34.11
77171;BME280;66144;50.020;14.422;2023-09-19T12:05:37;98603.34;;;28.85;35.85
77171;BME280;66144;50.020;14.422;2023-09-19T12:08:09;98594.38;;;28.74;34.52
77171;BME280;66144;50.020;14.422;2023-09-19T12:10:48;98596.25;;;28.67;33.76
77171;BME280;66144;50.020;14.422;2023-09-19T12:13:18;98593.97;;;28.72;34.03
77171;BME280;66144;50.020;14.422;2023-09-19T12:15:44;98601.41;;;28.49;34.04
77171;BME280;66144;50.020;14.422;2023-09-19T12:18:28;98598.63;;;28.38;34.71
77171;BME280;66144;50.020;14.422;2023-09-19T12:20:55;98600.44;;;28.68;34.87
77171;BME280;66144;50.020;14.422;2023-09-19T12:23:21;98590.47;;;29.09;34.70
77171;BME280;66144;50.020;14.422;2023-09-19T12:25:46;98590.06;;;29.58;34.22
77171;BME280;66144;50.020;14.422;2023-09-19T12:28:14;98584.91;;;30.01;33.94
77171;BME280;66144;50.020;14.422;2023-09-19T12:30:39;98599.56;;;30.24;32.90
77171;BME280;66144;50.020;14.422;2023-09-19T12:33:19;98598.03;;;30.23;32.56
77171;BME280;66144;50.020;14.422;2023-09-19T12:35:46;98601.53;;;30.35;32.02
77171;BME280;66144;50.020;14.422;2023-09-19T12:38:25;98601.31;;;29.85;32.58
77171;BME280;66144;50.020;14.422;2023-09-19T12:40:55;98597.53;;;29.97;32.28
77171;BME280;66144;50.020;14.422;2023-09-19T12:43:21;98599.28;;;29.64;33.35
77171;BME280;66144;50.020;14.422;2023-09-19T12:45:47;98597.59;;;29.38;33.24
77171;BME280;66144;50.020;14.422;2023-09-19T12:48:24;98593.88;;;29.02;34.82
77171;BME280;66144;50.020;14.422;2023-09-19T12:51:08;98588.19;;;28.67;35.06
77171;BME280;66144;50.020;14.422;2023-09-19T12:53:40;98584.91;;;28.13;34.80
77171;BME280;66144;50.020;14.422;2023-09-19T12:56:08;98585.88;;;27.98;36.10
77171;BME280;66144;50.020;14.422;2023-09-19T12:58:48;98586.69;;;27.72;36.89
77171;BME280;66144;50.020;14.422;2023-09-19T13:01:15;98586.94;;;27.60;37.59
77171;BME280;66144;50.020;14.422;2023-09-19T13:03:41;98584.44;;;27.22;36.52
77171;BME280;66144;50.020;14.422;2023-09-19T13:06:07;98580.97;;;27.21;37.26
77171;BME280;66144;50.020;14.422;2023-09-19T13:08:37;98582.66;;;27.06;38.98
77171;BME280;66144;50.020;14.422;2023-09-19T13:11:12;98574.91;;;26.78;36.42
77171;BME280;66144;50.020;14.422;2023-09-19T13:13:46;98574.25;;;26.62;37.54
77171;BME280;66144;50.020;14.422;2023-09-19T13:16:17;98562.03;;;26.23;35.45
77171;BME280;66144;50.020;14.422;2023-09-19T13:18:51;98562.31;;;26.17;35.66
77171;BME280;66144;50.020;14.422;2023-09-19T13:23:55;98566.06;;;25.74;36.29
77171;BME280;66144;50.020;14.422;2023-09-19T13:26:24;98564.00;;;25.68;37.10
77171;BME280;66144;50.020;14.422;2023-09-19T13:28:50;98566.13;;;25.78;37.39
77171;BME280;66144;50.020;14.422;2023-09-19T13:31:15;98570.28;;;25.60;38.47
77171;BME280;66144;50.020;14.422;2023-09-19T13:33:45;98572.53;;;25.73;37.74
77171;BME280;66144;50.020;14.422;2023-09-19T13:36:11;98574.28;;;25.50;36.48
77171;BME280;66144;50.020;14.422;2023-09-19T13:38:38;98572.91;;;25.40;36.08
77171;BME280;66144;50.020;14.422;2023-09-19T13:41:03;98574.22;;;25.46;36.89
77171;BME280;66144;50.020;14.422;2023-09-19T13:43:29;98570.63;;;25.39;35.79
77171;BME280;66144;50.020;14.422;2023-09-19T13:45:54;98578.22;;;25.21;35.86
77171;BME280;66144;50.020;14.422;2023-09-19T13:48:20;98576.53;;;25.13;36.49
77171;BME280;66144;50.020;14.422;2023-09-19T13:50:48;98584.19;;;25.15;36.68